Weather at Estes Ranch Airport [CLOSED]

Public forecast

Using degrees Fahrenheit for public forecast. Weather courtesy of forecast.io.

Closest aviation weather report (METAR) to Estes Ranch Airport

Closest report is Edwards County Airport, 19.8 nm (36.8 km) S. Retrieved 2022/07/04 15:15 UTC (0 seconds ago):

KECU 041515Z AUTO 15015KT 10SM OVC016 24/20 A3015 RMK AO2

Closest aviation forecast (TAF) to Estes Ranch Airport

Closest forecast is Kimble County Airport, 25.5 nm (47.2 km) ENE. Retrieved 2022/07/04 12:34 UTC (3 hours ago):

TAF KJCT 041132Z 0412/0512 15009KT P6SM SCT250 FM041600 17014G22KT P6SM FEW250